METAR KOCW 192105Z AUTO 02004KT 2SM RA OVC006 05/04 A3010 RMK AO2 P0001 
METAR KOCW 192056Z AUTO 00000KT 1 3/4SM RA OVC006 05/04 A3009 RMK AO2 P0000 
METAR KOCW 192036Z AUTO 02003KT 1 3/4SM RA BKN004 OVC008 05/04 A3011 RMK AO2 P0010 
METAR KOCW 192016Z AUTO 01003KT 2SM RA SCT006 BKN012 BKN026 05/04 A3012 RMK AO2 P0005 
METAR KOCW 191956Z AUTO 03004KT 2 1/2SM RA SCT009 SCT014 BKN031 05/04 A3010 RMK AO2 P0000 
METAR KOCW 191936Z AUTO 04005KT 2 1/2SM RA SCT005 BKN010 OVC025 05/04 A3010 RMK AO2 P0004 
METAR KOCW 191916Z AUTO 03005KT 3SM RA SCT007 SCT023 BKN039 05/04 A3011 RMK AO2 P0001 
METAR KOCW 191855Z AUTO 03006KT 2SM RA BKN007 BKN011 BKN023 05/04 A3011 RMK AO2 P0011 
METAR KOCW 191835Z AUTO 02005KT 2SM RA BKN007 BKN011 OVC017 05/04 A3014 RMK AO2 P0006 
METAR KOCW 191815Z AUTO 02006KT 2SM RA BKN007 BKN014 OVC024 05/04 A3014 RMK AO2 P0002 
METAR KOCW 191755Z AUTO 02005KT 2SM RA SCT007 BKN020 OVC026 05/04 A3015 RMK AO2 P0010 
METAR KOCW 191735Z AUTO 02004KT 2 1/2SM RA SCT027 SCT033 BKN055 05/04 A3016 RMK AO2 P0006 
METAR KOCW 191715Z AUTO 00000KT 2 1/2SM RA BKN050 05/04 A3016 RMK AO2 P0003 
METAR KOCW 191655Z AUTO 01004KT 4SM RA OVC050 05/04 A3019 RMK AO2 P0003 
METAR KOCW 191635Z AUTO 03004KT 5SM -RA OVC050 05/03 A3019 RMK AO2 P0001 
METAR KOCW 191615Z AUTO 04006KT 5SM -RA OVC050 05/03 A3018 RMK AO2 P0001 
METAR KOCW 191555Z AUTO 04005KT 5SM -RA OVC050 05/03 A3018 RMK AO2 P0002 
METAR KOCW 191535Z AUTO 03005KT 5SM -RA OVC050 05/03 A3020 RMK AO2 P0001 
METAR KOCW 191515Z AUTO 04005KT 7SM -RA OVC050 05/03 A3019 RMK AO2 P0001 
METAR KOCW 191455Z AUTO 03004KT 7SM -RA OVC050 06/03 A3019 RMK AO2 P0000 
METAR KOCW 191435Z AUTO 03005KT 7SM -RA BKN050 BKN100 06/03 A3018 RMK AO2 P0000 
METAR KOCW 191415Z AUTO 01005KT 7SM CLR 06/03 A3018 RMK AO2 
METAR KOCW 191355Z AUTO 04004KT 7SM -DZ CLR 06/03 A3016 RMK AO2 P0001 
METAR KOCW 191335Z AUTO 02003KT 5SM -DZ SCT050 SCT065 06/04 A3017 RMK AO2 P0001 
METAR KOCW 191315Z AUTO 04003KT 5SM -RA OVC050 06/04 A3017 RMK AO2 P0001 
METAR KOCW 191255Z AUTO 34003KT 5SM -RA OVC050 06/04 A3021 RMK AO2 P0000 
METAR KOCW 191235Z AUTO 00000KT 4SM -RA OVC050 06/05 A3018 RMK AO2 P0000 
METAR KOCW 191215Z AUTO 00000KT 5SM BR OVC050 06/05 A3016 RMK AO2 
METAR KOCW 191155Z AUTO 00000KT 7SM -RA OVC050 06/04 A3016 RMK AO2 P0001 
METAR KOCW 191135Z AUTO 00000KT 7SM -RA BKN055 OVC085 06/04 A3014 RMK AO2 P0001 
METAR KOCW 191115Z AUTO 00000KT 7SM -RA OVC055 06/04 A3016 RMK AO2 P0001 
METAR KOCW 191055Z AUTO 00000KT 7SM -RA OVC055 07/05 A3016 RMK AO2 P0000 
METAR KOCW 191035Z AUTO 00000KT 7SM OVC055 07/05 A3016 RMK AO2 
METAR KOCW 191015Z AUTO 00000KT 7SM OVC055 07/05 A3017 RMK AO2 
METAR KOCW 190955Z AUTO 00000KT 7SM -RA OVC055 06/04 A3016 RMK AO2 P0000 
METAR KOCW 190935Z AUTO 00000KT 7SM -RA OVC055 07/05 A3017 RMK AO2 P0000 
METAR KOCW 190915Z AUTO 00000KT 7SM -DZ BKN055 OVC070 07/05 A3017 RMK AO2 P0000 
METAR KOCW 190855Z AUTO 00000KT 10SM BKN070 BKN090 07/05 A3015 RMK AO2 P0001 
METAR KOCW 190835Z AUTO 00000KT 7SM CLR 07/05 A3015 RMK AO2 
METAR KOCW 190815Z AUTO 00000KT 7SM -RA SCT070 07/05 A3014 RMK AO2 P0000 
METAR KOCW 190755Z AUTO 00000KT 7SM -RA BKN070 OVC085 07/05 A3017 RMK AO2 P0001 
METAR KOCW 190735Z AUTO 00000KT 10SM -RA BKN070 BKN085 07/04 A3017 RMK AO2 P0001 
METAR KOCW 190715Z AUTO 00000KT 10SM -RA OVC070 07/03 A3018 RMK AO2 P0000 
METAR KOCW 190655Z AUTO 28003KT 10SM -DZ BKN070 OVC100 07/03 A3019 RMK AO2 P0000 
METAR KOCW 190635Z AUTO 00000KT 10SM -RA SCT070 OVC080 07/02 A3016 RMK AO2 P0000 
METAR KOCW 190615Z AUTO 00000KT 10SM OVC080 07/02 A3016 RMK AO2 
METAR KOCW 190556Z AUTO 26003KT 10SM SCT085 07/03 A3017 RMK AO2 
METAR KOCW 190536Z AUTO 00000KT 10SM CLR 07/03 A3013 RMK AO2 
METAR KOCW 190516Z AUTO 00000KT 10SM CLR 07/03 A3014 RMK AO2 
METAR KOCW 190456Z AUTO 00000KT 10SM CLR 07/02 A3013 RMK AO2 
METAR KOCW 190436Z AUTO 00000KT 10SM CLR 07/01 A3013 RMK AO2 
METAR KOCW 190416Z AUTO 24003KT 10SM CLR 07/01 A3015 RMK AO2 
METAR KOCW 190356Z AUTO 24003KT 10SM CLR 07/01 A3015 RMK AO2 
METAR KOCW 190336Z AUTO 00000KT 10SM CLR 07/02 A3014 RMK AO2 
METAR KOCW 190316Z AUTO 00000KT 10SM SCT090 07/02 A3014 RMK AO2 
METAR KOCW 190256Z AUTO 00000KT 10SM SCT090 07/02 A3017 RMK AO2 
METAR KOCW 190236Z AUTO 33003KT 10SM SCT090 07/01 A3019 RMK AO2 
METAR KOCW 190216Z AUTO 00000KT 10SM SCT090 07/03 A3018 RMK AO2 
METAR KOCW 190156Z AUTO 00000KT 10SM CLR 07/03 A3017 RMK AO2 
METAR KOCW 190136Z AUTO 00000KT 10SM CLR 07/02 A3017 RMK AO2 
METAR KOCW 190116Z AUTO 00000KT 10SM CLR 07/03 A3017 RMK AO2 
METAR KOCW 190056Z AUTO 00000KT 10SM CLR 07/03 A3018 RMK AO2 
METAR KOCW 190036Z AUTO 00000KT 10SM CLR 07/01 A3019 RMK AO2 
METAR KOCW 190016Z AUTO 00000KT 10SM CLR 07/02 A3017 RMK AO2 
METAR KOCW 182356Z AUTO 00000KT 10SM CLR 07/02 A3016 RMK AO2 
METAR KOCW 182336Z AUTO 00000KT 10SM CLR 07/02 A3014 RMK AO2 
METAR KOCW 182316Z AUTO 00000KT 10SM CLR 07/02 A3013 RMK AO2 
METAR KOCW 182256Z AUTO 00000KT 10SM CLR 07/01 A3015 RMK AO2 
METAR KOCW 182236Z AUTO 00000KT 10SM CLR 08/00 A3017 RMK AO2 
METAR KOCW 182216Z AUTO 00000KT 10SM CLR 08/00 A3017 RMK AO2 
METAR KOCW 182156Z AUTO 34003KT 10SM CLR 08/00 A3017 RMK AO2 
METAR KOCW 182136Z AUTO 34003KT 10SM CLR 08/00 A3017 RMK AO2 
METAR KOCW 182116Z AUTO 32003KT 10SM CLR 09/M01 A3017 RMK AO2 
METAR KOCW 182056Z AUTO 32004KT 10SM CLR 09/M01 A3018 RMK AO2 
METAR KOCW 182036Z AUTO 00000KT 10SM CLR 10/M01 A3018 RMK AO2 
METAR KOCW 182016Z AUTO 00000KT 10SM CLR 11/M01 A3017 RMK AO2 
METAR KOCW 181956Z AUTO 27003KT 10SM CLR 11/M02 A3017 RMK AO2 
METAR KOCW 181936Z AUTO 30003KT 10SM CLR 11/M02 A3016 RMK AO2 
METAR KOCW 181915Z AUTO 00000KT 10SM CLR 11/M02 A3017 RMK AO2 
METAR KOCW 181855Z AUTO 28003KT 10SM CLR 11/M02 A3017 RMK AO2 
METAR KOCW 181836Z AUTO 27003KT 10SM CLR 11/M02 A3017 RMK AO2 
METAR KOCW 181816Z AUTO 00000KT 10SM CLR 10/M02 A3017 RMK AO2 
METAR KOCW 181755Z AUTO 32004KT 10SM CLR 10/M02 A3019 RMK AO2 
METAR KOCW 181735Z AUTO 00000KT 10SM CLR 11/M01 A3019 RMK AO2 
METAR KOCW 181715Z AUTO 00000KT 10SM CLR 10/M02 A3020 RMK AO2 
METAR KOCW 181655Z AUTO 00000KT 10SM CLR 09/M02 A3021 RMK AO2 
METAR KOCW 181635Z AUTO 35005KT 10SM CLR 10/M02 A3021 RMK AO2 
METAR KOCW 181615Z AUTO 01004KT 10SM CLR 09/M02 A3023 RMK AO2 
METAR KOCW 181555Z AUTO 06007KT 015V095 10SM CLR 08/M02 A3023 RMK AO2 
METAR KOCW 181535Z AUTO 36006KT 10SM CLR 08/M03 A3026 RMK AO2 
METAR KOCW 181516Z AUTO 02006KT 10SM CLR 07/M03 A3026 RMK AO2 
METAR KOCW 181456Z AUTO 03008KT 10SM CLR 07/M03 A3026 RMK AO2 
METAR KOCW 181436Z AUTO 05009KT 10SM CLR 07/M03 A3025 RMK AO2 
METAR KOCW 181416Z AUTO 04007G14KT 10SM CLR 07/M02 A3026 RMK AO2 
METAR KOCW 181356Z AUTO 03011G15KT 10SM CLR 05/M02 A3026 RMK AO2 
METAR KOCW 181336Z AUTO 03006KT 10SM CLR 05/M01 A3025 RMK AO2 
METAR KOCW 181316Z AUTO 03004KT 10SM CLR 04/M01 A3025 RMK AO2 
METAR KOCW 181256Z AUTO 02005KT 10SM CLR 04/00 A3025 RMK AO2